sensor_id;sensor_type;location;lat;lon;timestamp;temperature;humidity
1568;DHT22;777;47.156;8.326;2022-11-20T00:00:15;5.20;99.90
1568;DHT22;777;47.156;8.326;2022-11-20T00:02:44;5.30;99.90
1568;DHT22;777;47.156;8.326;2022-11-20T00:05:11;5.30;99.90
1568;DHT22;777;47.156;8.326;2022-11-20T00:07:38;5.30;99.90
1568;DHT22;777;47.156;8.326;2022-11-20T00:10:05;5.20;99.90
1568;DHT22;777;47.156;8.326;2022-11-20T00:12:50;5.20;99.90
1568;DHT22;777;47.156;8.326;2022-11-20T00:15:17;5.20;99.90
1568;DHT22;777;47.156;8.326;2022-11-20T00:17:46;5.20;99.90
1568;DHT22;777;47.156;8.326;2022-11-20T00:20:13;5.20;99.90
1568;DHT22;777;47.156;8.326;2022-11-20T00:22:40;5.30;99.90
1568;DHT22;777;47.156;8.326;2022-11-20T00:25:08;5.30;99.90
1568;DHT22;777;47.156;8.326;2022-11-20T00:27:34;5.30;99.90
1568;DHT22;777;47.156;8.326;2022-11-20T00:30:02;5.30;99.90
1568;DHT22;777;47.156;8.326;2022-11-20T00:32:29;5.20;99.90
1568;DHT22;777;47.156;8.326;2022-11-20T00:34:58;5.30;99.90
1568;DHT22;777;47.156;8.326;2022-11-20T00:37:25;5.30;99.90
1568;DHT22;777;47.156;8.326;2022-11-20T00:39:51;5.30;99.90
1568;DHT22;777;47.156;8.326;2022-11-20T00:42:18;5.40;99.90
1568;DHT22;777;47.156;8.326;2022-11-20T00:44:45;5.40;99.90
1568;DHT22;777;47.156;8.326;2022-11-20T00:47:12;5.40;99.90
1568;DHT22;777;47.156;8.326;2022-11-20T00:49:39;5.40;99.90
1568;DHT22;777;47.156;8.326;2022-11-20T00:52:08;5.40;99.90
1568;DHT22;777;47.156;8.326;2022-11-20T00:54:35;5.40;99.90
1568;DHT22;777;47.156;8.326;2022-11-20T00:57:02;5.40;99.90
1568;DHT22;777;47.156;8.326;2022-11-20T00:59:29;5.40;99.90
1568;DHT22;777;47.156;8.326;2022-11-20T01:01:56;5.50;99.90
1568;DHT22;777;47.156;8.326;2022-11-20T01:08:12;5.50;99.90
1568;DHT22;777;47.156;8.326;2022-11-20T01:10:39;5.60;99.90
1568;DHT22;777;47.156;8.326;2022-11-20T01:13:06;5.60;99.90
1568;DHT22;777;47.156;8.326;2022-11-20T01:15:51;5.50;99.90
1568;DHT22;777;47.156;8.326;2022-11-20T01:18:18;5.50;99.90
1568;DHT22;777;47.156;8.326;2022-11-20T01:20:45;5.50;99.90
1568;DHT22;777;47.156;8.326;2022-11-20T01:23:13;5.50;99.90
1568;DHT22;777;47.156;8.326;2022-11-20T01:25:40;5.50;99.90
1568;DHT22;777;47.156;8.326;2022-11-20T01:28:07;5.60;99.90
1568;DHT22;777;47.156;8.326;2022-11-20T01:30:34;5.50;99.90
1568;DHT22;777;47.156;8.326;2022-11-20T01:33:01;5.60;99.90
1568;DHT22;777;47.156;8.326;2022-11-20T01:35:46;5.60;99.90
1568;DHT22;777;47.156;8.326;2022-11-20T01:38:15;5.50;99.90
1568;DHT22;777;47.156;8.326;2022-11-20T01:40:42;5.50;99.90
1568;DHT22;777;47.156;8.326;2022-11-20T01:43:13;5.40;99.90
1568;DHT22;777;47.156;8.326;2022-11-20T01:48:51;5.20;99.90
1568;DHT22;777;47.156;8.326;2022-11-20T01:51:24;5.20;99.90
1568;DHT22;777;47.156;8.326;2022-11-20T01:53:55;5.20;99.90
1568;DHT22;777;47.156;8.326;2022-11-20T01:56:26;5.10;99.90
1568;DHT22;777;47.156;8.326;2022-11-20T01:58:56;5.10;99.90
1568;DHT22;777;47.156;8.326;2022-11-20T02:01:23;5.10;99.90
1568;DHT22;777;47.156;8.326;2022-11-20T02:03:50;5.00;99.90
1568;DHT22;777;47.156;8.326;2022-11-20T02:06:22;5.00;99.90
1568;DHT22;777;47.156;8.326;2022-11-20T02:08:51;5.00;99.90
1568;DHT22;777;47.156;8.326;2022-11-20T02:11:19;5.00;99.90
1568;DHT22;777;47.156;8.326;2022-11-20T02:13:47;4.90;99.90
1568;DHT22;777;47.156;8.326;2022-11-20T02:16:21;5.00;99.90
1568;DHT22;777;47.156;8.326;2022-11-20T02:18:49;5.00;99.90
1568;DHT22;777;47.156;8.326;2022-11-20T02:21:24;5.00;99.90
1568;DHT22;777;47.156;8.326;2022-11-20T02:24:01;5.00;99.90
1568;DHT22;777;47.156;8.326;2022-11-20T02:26:30;5.00;99.90
1568;DHT22;777;47.156;8.326;2022-11-20T02:28:58;5.00;99.90
1568;DHT22;777;47.156;8.326;2022-11-20T02:31:26;5.00;99.90
1568;DHT22;777;47.156;8.326;2022-11-20T02:33:56;5.00;99.90
1568;DHT22;777;47.156;8.326;2022-11-20T02:36:25;5.00;99.90
1568;DHT22;777;47.156;8.326;2022-11-20T02:38:52;5.00;99.90
1568;DHT22;777;47.156;8.326;2022-11-20T02:41:21;5.00;99.90
1568;DHT22;777;47.156;8.326;2022-11-20T02:44:06;5.10;99.90
1568;DHT22;777;47.156;8.326;2022-11-20T02:46:34;5.10;99.90
1568;DHT22;777;47.156;8.326;2022-11-20T02:49:02;5.10;99.90
1568;DHT22;777;47.156;8.326;2022-11-20T02:51:29;5.20;99.90
1568;DHT22;777;47.156;8.326;2022-11-20T02:53:56;5.10;99.90
1568;DHT22;777;47.156;8.326;2022-11-20T02:56:25;5.10;99.90
1568;DHT22;777;47.156;8.326;2022-11-20T02:58:52;5.20;99.90
1568;DHT22;777;47.156;8.326;2022-11-20T03:01:19;5.20;99.90
1568;DHT22;777;47.156;8.326;2022-11-20T03:03:46;5.20;99.90
1568;DHT22;777;47.156;8.326;2022-11-20T03:06:14;5.10;99.90
1568;DHT22;777;47.156;8.326;2022-11-20T03:08:42;5.10;99.90
1568;DHT22;777;47.156;8.326;2022-11-20T03:11:09;5.10;99.90
1568;DHT22;777;47.156;8.326;2022-11-20T03:13:37;5.10;99.90
1568;DHT22;777;47.156;8.326;2022-11-20T03:16:09;5.00;99.90
1568;DHT22;777;47.156;8.326;2022-11-20T03:18:37;5.00;99.90
1568;DHT22;777;47.156;8.326;2022-11-20T03:21:05;5.00;99.90
1568;DHT22;777;47.156;8.326;2022-11-20T03:23:32;5.00;99.90
1568;DHT22;777;47.156;8.326;2022-11-20T03:26:10;5.00;99.90
1568;DHT22;777;47.156;8.326;2022-11-20T03:28:39;5.00;99.90
1568;DHT22;777;47.156;8.326;2022-11-20T03:31:08;4.90;99.90
1568;DHT22;777;47.156;8.326;2022-11-20T03:33:35;4.90;99.90
1568;DHT22;777;47.156;8.326;2022-11-20T03:36:03;4.90;99.90
1568;DHT22;777;47.156;8.326;2022-11-20T03:38:31;4.90;99.90
1568;DHT22;777;47.156;8.326;2022-11-20T03:40:59;4.90;99.90
1568;DHT22;777;47.156;8.326;2022-11-20T03:43:27;4.90;99.90
1568;DHT22;777;47.156;8.326;2022-11-20T03:45:55;4.80;99.90
1568;DHT22;777;47.156;8.326;2022-11-20T03:48:23;4.80;99.90
1568;DHT22;777;47.156;8.326;2022-11-20T03:50:50;4.80;99.90
1568;DHT22;777;47.156;8.326;2022-11-20T03:53:18;4.80;99.90
1568;DHT22;777;47.156;8.326;2022-11-20T03:55:45;4.80;99.90
1568;DHT22;777;47.156;8.326;2022-11-20T03:58:16;4.90;99.90
1568;DHT22;777;47.156;8.326;2022-11-20T04:00:43;4.80;99.90
1568;DHT22;777;47.156;8.326;2022-11-20T04:03:12;4.80;99.90
1568;DHT22;777;47.156;8.326;2022-11-20T04:05:39;4.80;99.90
1568;DHT22;777;47.156;8.326;2022-11-20T04:08:06;4.80;99.90
1568;DHT22;777;47.156;8.326;2022-11-20T04:10:33;4.80;99.90
1568;DHT22;777;47.156;8.326;2022-11-20T04:13:00;4.90;99.90
1568;DHT22;777;47.156;8.326;2022-11-20T04:15:27;4.80;99.90
1568;DHT22;777;47.156;8.326;2022-11-20T04:17:54;4.90;99.90
1568;DHT22;777;47.156;8.326;2022-11-20T04:20:23;4.80;99.90
1568;DHT22;777;47.156;8.326;2022-11-20T04:22:53;4.70;99.90
1568;DHT22;777;47.156;8.326;2022-11-20T04:25:20;4.70;99.90
1568;DHT22;777;47.156;8.326;2022-11-20T04:27:47;4.70;99.90
1568;DHT22;777;47.156;8.326;2022-11-20T04:30:14;4.70;99.90
1568;DHT22;777;47.156;8.326;2022-11-20T04:32:41;4.70;99.90
1568;DHT22;777;47.156;8.326;2022-11-20T04:35:29;4.70;99.90
1568;DHT22;777;47.156;8.326;2022-11-20T04:37:55;4.70;99.90
1568;DHT22;777;47.156;8.326;2022-11-20T04:40:22;4.70;99.90
1568;DHT22;777;47.156;8.326;2022-11-20T04:42:50;4.80;99.90
1568;DHT22;777;47.156;8.326;2022-11-20T04:45:17;4.70;99.90
1568;DHT22;777;47.156;8.326;2022-11-20T04:47:44;4.80;99.90
1568;DHT22;777;47.156;8.326;2022-11-20T04:50:11;4.80;99.90
1568;DHT22;777;47.156;8.326;2022-11-20T04:52:39;4.70;99.90
1568;DHT22;777;47.156;8.326;2022-11-20T04:55:07;4.70;99.90
1568;DHT22;777;47.156;8.326;2022-11-20T04:57:34;4.70;99.90
1568;DHT22;777;47.156;8.326;2022-11-20T05:00:01;4.80;99.90
1568;DHT22;777;47.156;8.326;2022-11-20T05:02:28;4.80;99.90
1568;DHT22;777;47.156;8.326;2022-11-20T05:04:57;4.80;99.90
1568;DHT22;777;47.156;8.326;2022-11-20T05:07:24;4.80;99.90
1568;DHT22;777;47.156;8.326;2022-11-20T05:09:52;4.80;99.90
1568;DHT22;777;47.156;8.326;2022-11-20T05:12:19;4.80;99.90
1568;DHT22;777;47.156;8.326;2022-11-20T05:14:46;4.80;99.90
1568;DHT22;777;47.156;8.326;2022-11-20T05:17:13;4.70;99.90
1568;DHT22;777;47.156;8.326;2022-11-20T05:19:40;4.70;99.90
1568;DHT22;777;47.156;8.326;2022-11-20T05:22:07;4.70;99.90
1568;DHT22;777;47.156;8.326;2022-11-20T05:24:34;4.60;99.90
1568;DHT22;777;47.156;8.326;2022-11-20T05:27:02;4.60;99.90
1568;DHT22;777;47.156;8.326;2022-11-20T05:29:29;4.60;99.90
1568;DHT22;777;47.156;8.326;2022-11-20T05:31:56;4.60;99.90
1568;DHT22;777;47.156;8.326;2022-11-20T05:34:23;4.70;99.90
1568;DHT22;777;47.156;8.326;2022-11-20T05:36:50;4.70;99.90
1568;DHT22;777;47.156;8.326;2022-11-20T05:39:17;4.70;99.90
1568;DHT22;777;47.156;8.326;2022-11-20T05:41:44;4.70;99.90
1568;DHT22;777;47.156;8.326;2022-11-20T05:44:13;4.80;99.90
1568;DHT22;777;47.156;8.326;2022-11-20T05:46:40;4.80;99.90
1568;DHT22;777;47.156;8.326;2022-11-20T05:49:07;4.90;99.90
1568;DHT22;777;47.156;8.326;2022-11-20T05:51:53;4.90;99.90
1568;DHT22;777;47.156;8.326;2022-11-20T05:54:20;4.90;99.90
1568;DHT22;777;47.156;8.326;2022-11-20T05:56:47;5.00;99.90
1568;DHT22;777;47.156;8.326;2022-11-20T05:59:34;5.10;99.90
1568;DHT22;777;47.156;8.326;2022-11-20T06:02:01;5.10;99.90
1568;DHT22;777;47.156;8.326;2022-11-20T06:04:28;5.10;99.90
1568;DHT22;777;47.156;8.326;2022-11-20T06:06:55;5.10;99.90
1568;DHT22;777;47.156;8.326;2022-11-20T06:09:22;5.10;99.90
1568;DHT22;777;47.156;8.326;2022-11-20T06:11:49;5.00;99.90
1568;DHT22;777;47.156;8.326;2022-11-20T06:14:16;5.00;99.90
1568;DHT22;777;47.156;8.326;2022-11-20T06:16:44;5.00;99.90
1568;DHT22;777;47.156;8.326;2022-11-20T06:19:11;5.00;99.90
1568;DHT22;777;47.156;8.326;2022-11-20T06:21:38;5.10;99.90
1568;DHT22;777;47.156;8.326;2022-11-20T06:24:06;5.10;99.90
1568;DHT22;777;47.156;8.326;2022-11-20T06:26:33;5.10;99.90
1568;DHT22;777;47.156;8.326;2022-11-20T06:29:00;5.10;99.90
1568;DHT22;777;47.156;8.326;2022-11-20T06:31:27;5.10;99.90
1568;DHT22;777;47.156;8.326;2022-11-20T06:33:55;5.20;99.90
1568;DHT22;777;47.156;8.326;2022-11-20T06:36:22;5.10;99.90
1568;DHT22;777;47.156;8.326;2022-11-20T06:38:49;5.10;99.90
1568;DHT22;777;47.156;8.326;2022-11-20T06:41:18;5.10;99.90
1568;DHT22;777;47.156;8.326;2022-11-20T06:43:45;5.10;99.90
1568;DHT22;777;47.156;8.326;2022-11-20T06:46:14;5.10;99.90
1568;DHT22;777;47.156;8.326;2022-11-20T06:48:43;5.10;99.90
1568;DHT22;777;47.156;8.326;2022-11-20T06:51:11;5.10;99.90
1568;DHT22;777;47.156;8.326;2022-11-20T06:53:38;5.20;99.90
1568;DHT22;777;47.156;8.326;2022-11-20T06:56:06;5.20;99.90
1568;DHT22;777;47.156;8.326;2022-11-20T06:58:34;5.20;99.90
1568;DHT22;777;47.156;8.326;2022-11-20T07:01:03;5.20;99.90
1568;DHT22;777;47.156;8.326;2022-11-20T07:03:49;5.20;99.90
1568;DHT22;777;47.156;8.326;2022-11-20T07:06:18;5.20;99.90
1568;DHT22;777;47.156;8.326;2022-11-20T07:08:45;5.30;99.90
1568;DHT22;777;47.156;8.326;2022-11-20T07:11:12;5.20;99.90
1568;DHT22;777;47.156;8.326;2022-11-20T07:13:39;5.30;99.90
1568;DHT22;777;47.156;8.326;2022-11-20T07:16:08;5.30;99.90
1568;DHT22;777;47.156;8.326;2022-11-20T07:18:35;5.30;99.90
1568;DHT22;777;47.156;8.326;2022-11-20T07:21:03;5.30;99.90
1568;DHT22;777;47.156;8.326;2022-11-20T07:23:32;5.30;99.90
1568;DHT22;777;47.156;8.326;2022-11-20T07:26:03;5.40;99.90
1568;DHT22;777;47.156;8.326;2022-11-20T07:28:30;5.40;99.90
1568;DHT22;777;47.156;8.326;2022-11-20T07:30:57;5.40;99.90
1568;DHT22;777;47.156;8.326;2022-11-20T07:33:24;5.50;99.90
1568;DHT22;777;47.156;8.326;2022-11-20T07:35:51;5.60;99.90
1568;DHT22;777;47.156;8.326;2022-11-20T07:38:18;5.60;99.90
1568;DHT22;777;47.156;8.326;2022-11-20T07:40:46;5.60;99.90
1568;DHT22;777;47.156;8.326;2022-11-20T07:43:14;5.70;99.90
1568;DHT22;777;47.156;8.326;2022-11-20T07:45:41;5.70;99.90
1568;DHT22;777;47.156;8.326;2022-11-20T07:48:08;5.60;99.90
1568;DHT22;777;47.156;8.326;2022-11-20T07:50:35;5.60;99.90
1568;DHT22;777;47.156;8.326;2022-11-20T07:53:21;5.60;99.90
1568;DHT22;777;47.156;8.326;2022-11-20T07:55:49;5.70;99.90
1568;DHT22;777;47.156;8.326;2022-11-20T07:58:18;5.70;99.90
1568;DHT22;777;47.156;8.326;2022-11-20T08:00:45;5.70;99.90
1568;DHT22;777;47.156;8.326;2022-11-20T08:03:12;5.70;99.90
1568;DHT22;777;47.156;8.326;2022-11-20T08:05:39;5.70;99.90
1568;DHT22;777;47.156;8.326;2022-11-20T08:08:06;5.70;99.90
1568;DHT22;777;47.156;8.326;2022-11-20T08:10:33;5.60;99.90
1568;DHT22;777;47.156;8.326;2022-11-20T08:13:02;5.70;99.90
1568;DHT22;777;47.156;8.326;2022-11-20T08:16:05;5.60;99.90
1568;DHT22;777;47.156;8.326;2022-11-20T08:18:32;5.70;99.90
1568;DHT22;777;47.156;8.326;2022-11-20T08:21:02;5.70;99.90
1568;DHT22;777;47.156;8.326;2022-11-20T08:23:48;5.70;99.90
1568;DHT22;777;47.156;8.326;2022-11-20T08:26:15;5.70;99.90
1568;DHT22;777;47.156;8.326;2022-11-20T08:28:44;5.80;99.90
1568;DHT22;777;47.156;8.326;2022-11-20T08:31:11;5.80;99.90
1568;DHT22;777;47.156;8.326;2022-11-20T08:33:38;5.80;99.90
1568;DHT22;777;47.156;8.326;2022-11-20T08:36:05;5.90;99.90
1568;DHT22;777;47.156;8.326;2022-11-20T08:38:33;5.90;99.90
1568;DHT22;777;47.156;8.326;2022-11-20T08:41:01;5.90;99.90
1568;DHT22;777;47.156;8.326;2022-11-20T08:43:47;6.00;99.90
1568;DHT22;777;47.156;8.326;2022-11-20T08:46:14;6.00;99.90
1568;DHT22;777;47.156;8.326;2022-11-20T08:48:42;6.00;99.90
1568;DHT22;777;47.156;8.326;2022-11-20T08:51:09;6.00;99.90
1568;DHT22;777;47.156;8.326;2022-11-20T08:53:36;6.00;99.90
1568;DHT22;777;47.156;8.326;2022-11-20T08:56:04;6.10;99.90
1568;DHT22;777;47.156;8.326;2022-11-20T08:58:31;6.10;99.90
1568;DHT22;777;47.156;8.326;2022-11-20T09:00:59;6.20;99.90
1568;DHT22;777;47.156;8.326;2022-11-20T09:03:26;6.20;99.90
1568;DHT22;777;47.156;8.326;2022-11-20T09:05:57;6.20;99.90
1568;DHT22;777;47.156;8.326;2022-11-20T09:08:25;6.20;99.90
1568;DHT22;777;47.156;8.326;2022-11-20T09:10:52;6.20;99.90
1568;DHT22;777;47.156;8.326;2022-11-20T09:13:19;6.30;99.90
1568;DHT22;777;47.156;8.326;2022-11-20T09:15:47;6.40;99.90
1568;DHT22;777;47.156;8.326;2022-11-20T09:18:15;6.50;99.90
1568;DHT22;777;47.156;8.326;2022-11-20T09:20:42;6.70;99.90
1568;DHT22;777;47.156;8.326;2022-11-20T09:23:09;6.80;99.90
1568;DHT22;777;47.156;8.326;2022-11-20T09:25:36;7.00;99.90
1568;DHT22;777;47.156;8.326;2022-11-20T09:28:03;7.00;99.90
1568;DHT22;777;47.156;8.326;2022-11-20T09:30:30;7.10;99.90
1568;DHT22;777;47.156;8.326;2022-11-20T09:32:57;7.10;99.90
1568;DHT22;777;47.156;8.326;2022-11-20T09:35:26;7.20;99.90
1568;DHT22;777;47.156;8.326;2022-11-20T09:37:53;7.20;99.90
1568;DHT22;777;47.156;8.326;2022-11-20T09:40:22;7.10;99.90
1568;DHT22;777;47.156;8.326;2022-11-20T09:42:55;7.10;99.90
1568;DHT22;777;47.156;8.326;2022-11-20T09:45:33;7.20;99.90
1568;DHT22;777;47.156;8.326;2022-11-20T09:48:30;7.20;99.90
1568;DHT22;777;47.156;8.326;2022-11-20T09:51:08;7.20;99.90
1568;DHT22;777;47.156;8.326;2022-11-20T09:53:46;7.30;99.90
1568;DHT22;777;47.156;8.326;2022-11-20T09:56:19;7.40;99.90
1568;DHT22;777;47.156;8.326;2022-11-20T09:58:49;7.60;99.90
1568;DHT22;777;47.156;8.326;2022-11-20T10:01:18;7.60;99.90
1568;DHT22;777;47.156;8.326;2022-11-20T10:03:52;7.60;99.90
1568;DHT22;777;47.156;8.326;2022-11-20T10:06:22;7.80;99.90
1568;DHT22;777;47.156;8.326;2022-11-20T10:08:59;7.90;99.90
1568;DHT22;777;47.156;8.326;2022-11-20T10:11:36;7.90;99.90
1568;DHT22;777;47.156;8.326;2022-11-20T10:14:21;8.00;99.90
1568;DHT22;777;47.156;8.326;2022-11-20T10:16:58;8.00;99.90
1568;DHT22;777;47.156;8.326;2022-11-20T10:19:38;8.10;99.90
1568;DHT22;777;47.156;8.326;2022-11-20T10:22:20;8.30;99.90
1568;DHT22;777;47.156;8.326;2022-11-20T10:24:55;8.30;99.90
1568;DHT22;777;47.156;8.326;2022-11-20T10:27:27;8.30;99.90
1568;DHT22;777;47.156;8.326;2022-11-20T10:30:01;8.30;99.90
1568;DHT22;777;47.156;8.326;2022-11-20T10:32:36;8.20;99.90
1568;DHT22;777;47.156;8.326;2022-11-20T10:35:14;8.30;99.90
1568;DHT22;777;47.156;8.326;2022-11-20T10:37:45;8.50;99.90
1568;DHT22;777;47.156;8.326;2022-11-20T10:40:23;8.50;99.90
1568;DHT22;777;47.156;8.326;2022-11-20T10:42:55;8.60;99.90
1568;DHT22;777;47.156;8.326;2022-11-20T10:45:33;8.60;99.90
1568;DHT22;777;47.156;8.326;2022-11-20T10:48:12;8.80;99.90
1568;DHT22;777;47.156;8.326;2022-11-20T10:50:53;8.90;99.90
1568;DHT22;777;47.156;8.326;2022-11-20T10:53:48;8.90;99.90
1568;DHT22;777;47.156;8.326;2022-11-20T10:56:21;9.10;99.90
1568;DHT22;777;47.156;8.326;2022-11-20T10:59:03;9.30;99.90
1568;DHT22;777;47.156;8.326;2022-11-20T11:01:31;9.40;99.90
1568;DHT22;777;47.156;8.326;2022-11-20T11:04:18;9.40;99.90
1568;DHT22;777;47.156;8.326;2022-11-20T11:06:48;9.40;99.90
1568;DHT22;777;47.156;8.326;2022-11-20T11:09:21;9.30;99.90
1568;DHT22;777;47.156;8.326;2022-11-20T11:11:52;9.30;99.90
1568;DHT22;777;47.156;8.326;2022-11-20T11:14:19;9.20;99.90
1568;DHT22;777;47.156;8.326;2022-11-20T11:16:50;9.10;99.90
1568;DHT22;777;47.156;8.326;2022-11-20T11:19:17;9.00;99.90
1568;DHT22;777;47.156;8.326;2022-11-20T11:21:47;9.00;99.90
1568;DHT22;777;47.156;8.326;2022-11-20T11:24:22;8.90;99.90
1568;DHT22;777;47.156;8.326;2022-11-20T11:26:56;8.70;99.90
1568;DHT22;777;47.156;8.326;2022-11-20T11:29:24;8.60;99.90
1568;DHT22;777;47.156;8.326;2022-11-20T11:32:04;9.10;99.90
1568;DHT22;777;47.156;8.326;2022-11-20T11:34:31;11.00;99.90
1568;DHT22;777;47.156;8.326;2022-11-20T11:36:59;12.00;99.90
1568;DHT22;777;47.156;8.326;2022-11-20T11:39:29;11.40;99.90
1568;DHT22;777;47.156;8.326;2022-11-20T11:42:19;10.50;99.90
1568;DHT22;777;47.156;8.326;2022-11-20T11:44:47;9.80;99.90
1568;DHT22;777;47.156;8.326;2022-11-20T11:47:52;9.30;99.90
1568;DHT22;777;47.156;8.326;2022-11-20T11:50:21;9.10;99.90
1568;DHT22;777;47.156;8.326;2022-11-20T11:52:56;9.40;99.90
1568;DHT22;777;47.156;8.326;2022-11-20T11:55:31;10.50;99.90
1568;DHT22;777;47.156;8.326;2022-11-20T11:58:08;12.20;99.90
1568;DHT22;777;47.156;8.326;2022-11-20T12:00:41;12.80;99.90
1568;DHT22;777;47.156;8.326;2022-11-20T12:03:15;12.60;99.90
1568;DHT22;777;47.156;8.326;2022-11-20T12:05:47;13.70;99.90
1568;DHT22;777;47.156;8.326;2022-11-20T12:08:21;15.00;99.90
1568;DHT22;777;47.156;8.326;2022-11-20T12:10:55;15.90;99.90
1568;DHT22;777;47.156;8.326;2022-11-20T12:13:41;15.40;99.90
1568;DHT22;777;47.156;8.326;2022-11-20T12:16:12;14.90;99.90
1568;DHT22;777;47.156;8.326;2022-11-20T12:18:40;13.80;99.90
1568;DHT22;777;47.156;8.326;2022-11-20T12:21:19;12.40;99.90
1568;DHT22;777;47.156;8.326;2022-11-20T12:24:03;11.40;99.90
1568;DHT22;777;47.156;8.326;2022-11-20T12:26:45;10.80;99.90
1568;DHT22;777;47.156;8.326;2022-11-20T12:29:19;10.90;99.90
1568;DHT22;777;47.156;8.326;2022-11-20T12:34:51;13.80;99.90
1568;DHT22;777;47.156;8.326;2022-11-20T12:37:33;14.70;99.90
1568;DHT22;777;47.156;8.326;2022-11-20T12:40:16;14.40;99.90
1568;DHT22;777;47.156;8.326;2022-11-20T12:42:57;13.40;99.90
1568;DHT22;777;47.156;8.326;2022-11-20T12:46:06;12.80;99.90
1568;DHT22;777;47.156;8.326;2022-11-20T12:48:42;14.60;99.90
1568;DHT22;777;47.156;8.326;2022-11-20T12:57:33;15.30;99.90
1568;DHT22;777;47.156;8.326;2022-11-20T13:00:11;15.10;99.90
1568;DHT22;777;47.156;8.326;2022-11-20T13:03:02;15.80;99.90
1568;DHT22;777;47.156;8.326;2022-11-20T13:05:38;16.80;99.10
1568;DHT22;777;47.156;8.326;2022-11-20T13:08:31;17.80;99.20
1568;DHT22;777;47.156;8.326;2022-11-20T13:11:07;18.20;96.60
1568;DHT22;777;47.156;8.326;2022-11-20T13:13:47;18.00;94.20
1568;DHT22;777;47.156;8.326;2022-11-20T13:16:25;16.50;94.00
1568;DHT22;777;47.156;8.326;2022-11-20T13:18:55;16.20;94.50
1568;DHT22;777;47.156;8.326;2022-11-20T13:21:35;16.50;95.30
1568;DHT22;777;47.156;8.326;2022-11-20T13:24:04;16.70;94.20
1568;DHT22;777;47.156;8.326;2022-11-20T13:26:32;17.60;94.90
1568;DHT22;777;47.156;8.326;2022-11-20T13:29:07;18.50;94.50
1568;DHT22;777;47.156;8.326;2022-11-20T13:31:42;19.00;92.60
1568;DHT22;777;47.156;8.326;2022-11-20T13:34:12;19.20;91.70
1568;DHT22;777;47.156;8.326;2022-11-20T13:36:49;19.20;91.80
1568;DHT22;777;47.156;8.326;2022-11-20T13:39:24;18.90;91.60
1568;DHT22;777;47.156;8.326;2022-11-20T13:41:54;18.50;90.90
1568;DHT22;777;47.156;8.326;2022-11-20T13:44:27;18.50;90.90
1568;DHT22;777;47.156;8.326;2022-11-20T13:46:57;18.50;89.50
1568;DHT22;777;47.156;8.326;2022-11-20T13:49:26;17.80;90.40
1568;DHT22;777;47.156;8.326;2022-11-20T13:52:35;18.10;91.50
1568;DHT22;777;47.156;8.326;2022-11-20T13:55:14;16.30;90.50
1568;DHT22;777;47.156;8.326;2022-11-20T13:57:56;14.60;93.80
1568;DHT22;777;47.156;8.326;2022-11-20T14:00:25;15.60;93.80
1568;DHT22;777;47.156;8.326;2022-11-20T14:03:07;15.10;93.40
1568;DHT22;777;47.156;8.326;2022-11-20T14:05:40;15.10;93.80
1568;DHT22;777;47.156;8.326;2022-11-20T14:08:23;14.80;93.10
1568;DHT22;777;47.156;8.326;2022-11-20T14:10:50;13.70;94.40
1568;DHT22;777;47.156;8.326;2022-11-20T14:13:19;12.50;96.60
1568;DHT22;777;47.156;8.326;2022-11-20T14:15:46;11.90;99.30
1568;DHT22;777;47.156;8.326;2022-11-20T14:18:20;11.20;99.90
1568;DHT22;777;47.156;8.326;2022-11-20T14:20:48;10.70;99.90
1568;DHT22;777;47.156;8.326;2022-11-20T14:23:24;10.30;99.90
1568;DHT22;777;47.156;8.326;2022-11-20T14:26:12;10.10;99.90
1568;DHT22;777;47.156;8.326;2022-11-20T14:28:41;9.90;99.90
1568;DHT22;777;47.156;8.326;2022-11-20T14:31:18;9.90;99.90
1568;DHT22;777;47.156;8.326;2022-11-20T14:33:49;9.70;99.90
1568;DHT22;777;47.156;8.326;2022-11-20T14:36:17;9.60;99.90
1568;DHT22;777;47.156;8.326;2022-11-20T14:38:46;9.80;99.90
1568;DHT22;777;47.156;8.326;2022-11-20T14:41:17;9.80;99.90
1568;DHT22;777;47.156;8.326;2022-11-20T14:43:46;9.80;99.90
1568;DHT22;777;47.156;8.326;2022-11-20T14:46:14;9.80;99.90
1568;DHT22;777;47.156;8.326;2022-11-20T14:48:45;9.70;99.90
1568;DHT22;777;47.156;8.326;2022-11-20T14:51:27;9.60;99.90
1568;DHT22;777;47.156;8.326;2022-11-20T14:53:55;9.50;99.90
1568;DHT22;777;47.156;8.326;2022-11-20T14:56:23;9.30;99.90
1568;DHT22;777;47.156;8.326;2022-11-20T14:58:57;9.20;99.90
1568;DHT22;777;47.156;8.326;2022-11-20T15:01:28;9.00;99.90
1568;DHT22;777;47.156;8.326;2022-11-20T15:04:14;8.90;99.90
1568;DHT22;777;47.156;8.326;2022-11-20T15:06:52;8.80;99.90
1568;DHT22;777;47.156;8.326;2022-11-20T15:09:19;8.60;99.90
1568;DHT22;777;47.156;8.326;2022-11-20T15:11:54;8.50;99.90
1568;DHT22;777;47.156;8.326;2022-11-20T15:14:22;8.40;99.90
1568;DHT22;777;47.156;8.326;2022-11-20T15:16:50;8.20;99.90
1568;DHT22;777;47.156;8.326;2022-11-20T15:19:20;8.10;99.90
1568;DHT22;777;47.156;8.326;2022-11-20T15:22:10;7.90;99.90
1568;DHT22;777;47.156;8.326;2022-11-20T15:24:38;7.90;99.90
1568;DHT22;777;47.156;8.326;2022-11-20T15:27:09;7.70;99.90
1568;DHT22;777;47.156;8.326;2022-11-20T15:29:36;7.60;99.90
1568;DHT22;777;47.156;8.326;2022-11-20T15:32:03;7.60;99.90
1568;DHT22;777;47.156;8.326;2022-11-20T15:34:30;7.50;99.90
1568;DHT22;777;47.156;8.326;2022-11-20T15:36:57;7.40;99.90
1568;DHT22;777;47.156;8.326;2022-11-20T15:39:26;7.40;99.90
1568;DHT22;777;47.156;8.326;2022-11-20T15:41:53;7.20;99.90
1568;DHT22;777;47.156;8.326;2022-11-20T15:44:20;7.20;99.90
1568;DHT22;777;47.156;8.326;2022-11-20T15:46:49;7.00;99.90
1568;DHT22;777;47.156;8.326;2022-11-20T15:49:36;6.90;99.90
1568;DHT22;777;47.156;8.326;2022-11-20T15:52:08;6.80;99.90
1568;DHT22;777;47.156;8.326;2022-11-20T15:54:39;6.70;99.90
1568;DHT22;777;47.156;8.326;2022-11-20T15:57:06;6.70;99.90
1568;DHT22;777;47.156;8.326;2022-11-20T15:59:33;6.60;99.90
1568;DHT22;777;47.156;8.326;2022-11-20T16:02:21;6.50;99.90
1568;DHT22;777;47.156;8.326;2022-11-20T16:04:48;6.40;99.90
1568;DHT22;777;47.156;8.326;2022-11-20T16:07:15;6.20;99.90
1568;DHT22;777;47.156;8.326;2022-11-20T16:09:43;6.10;99.90
1568;DHT22;777;47.156;8.326;2022-11-20T16:12:10;6.00;99.90
1568;DHT22;777;47.156;8.326;2022-11-20T16:14:58;6.00;99.90
1568;DHT22;777;47.156;8.326;2022-11-20T16:17:42;6.10;99.90
1568;DHT22;777;47.156;8.326;2022-11-20T16:20:11;6.10;99.90
1568;DHT22;777;47.156;8.326;2022-11-20T16:22:38;6.10;99.90
1568;DHT22;777;47.156;8.326;2022-11-20T16:25:07;6.10;99.90
1568;DHT22;777;47.156;8.326;2022-11-20T16:27:34;6.20;99.90
1568;DHT22;777;47.156;8.326;2022-11-20T16:30:01;6.20;99.90
1568;DHT22;777;47.156;8.326;2022-11-20T16:32:28;6.10;99.90
1568;DHT22;777;47.156;8.326;2022-11-20T16:34:55;6.10;99.90
1568;DHT22;777;47.156;8.326;2022-11-20T16:37:22;6.00;99.90
1568;DHT22;777;47.156;8.326;2022-11-20T16:39:49;5.90;99.90
1568;DHT22;777;47.156;8.326;2022-11-20T16:42:17;5.70;99.90
1568;DHT22;777;47.156;8.326;2022-11-20T16:44:45;5.50;99.90
1568;DHT22;777;47.156;8.326;2022-11-20T16:47:12;5.40;99.90
1568;DHT22;777;47.156;8.326;2022-11-20T16:49:39;5.50;99.90
1568;DHT22;777;47.156;8.326;2022-11-20T16:52:26;5.50;99.90
1568;DHT22;777;47.156;8.326;2022-11-20T16:54:53;5.60;99.90
1568;DHT22;777;47.156;8.326;2022-11-20T16:57:21;5.70;99.90
1568;DHT22;777;47.156;8.326;2022-11-20T16:59:48;5.70;99.90
1568;DHT22;777;47.156;8.326;2022-11-20T17:02:15;5.70;99.90
1568;DHT22;777;47.156;8.326;2022-11-20T17:04:42;5.70;99.90
1568;DHT22;777;47.156;8.326;2022-11-20T17:07:09;5.70;99.90
1568;DHT22;777;47.156;8.326;2022-11-20T17:09:37;5.70;99.90
1568;DHT22;777;47.156;8.326;2022-11-20T17:12:05;5.70;99.90